sensor_id;sensor_type;location;lat;lon;timestamp;pressure;altitude;pressure_sealevel;temperature;humidity
75942;BME280;64622;46.220;19.878;2023-02-15T00:01:50;102329.06;;;-1.50;100.00
75942;BME280;64622;46.220;19.878;2023-02-15T00:04:19;102340.34;;;-1.47;100.00
75942;BME280;64622;46.220;19.878;2023-02-15T00:06:46;102339.44;;;-1.46;100.00
75942;BME280;64622;46.220;19.878;2023-02-15T00:09:13;102334.00;;;-1.37;100.00
75942;BME280;64622;46.220;19.878;2023-02-15T00:11:40;102321.00;;;-1.42;100.00
75942;BME280;64622;46.220;19.878;2023-02-15T00:14:16;102324.66;;;-1.50;100.00
75942;BME280;64622;46.220;19.878;2023-02-15T00:16:44;102326.94;;;-1.73;100.00
75942;BME280;64622;46.220;19.878;2023-02-15T00:19:12;102327.12;;;-1.82;100.00
75942;BME280;64622;46.220;19.878;2023-02-15T00:21:39;102333.16;;;-1.78;100.00
75942;BME280;64622;46.220;19.878;2023-02-15T00:24:08;102330.69;;;-1.86;100.00
75942;BME280;64622;46.220;19.878;2023-02-15T00:26:37;102335.06;;;-1.86;100.00
75942;BME280;64622;46.220;19.878;2023-02-15T00:29:04;102337.97;;;-2.00;100.00
75942;BME280;64622;46.220;19.878;2023-02-15T00:31:32;102334.59;;;-2.06;100.00
75942;BME280;64622;46.220;19.878;2023-02-15T00:34:09;102336.44;;;-2.10;100.00
75942;BME280;64622;46.220;19.878;2023-02-15T00:36:37;102338.91;;;-2.02;100.00
75942;BME280;64622;46.220;19.878;2023-02-15T00:39:04;102329.50;;;-2.14;100.00
75942;BME280;64622;46.220;19.878;2023-02-15T00:41:32;102322.63;;;-2.17;100.00
75942;BME280;64622;46.220;19.878;2023-02-15T00:43:59;102316.75;;;-2.32;100.00
75942;BME280;64622;46.220;19.878;2023-02-15T00:46:25;102313.38;;;-2.37;100.00
75942;BME280;64622;46.220;19.878;2023-02-15T00:48:52;102325.56;;;-2.36;100.00
75942;BME280;64622;46.220;19.878;2023-02-15T00:51:19;102324.69;;;-2.35;100.00
75942;BME280;64622;46.220;19.878;2023-02-15T00:53:47;102317.81;;;-2.40;100.00
75942;BME280;64622;46.220;19.878;2023-02-15T00:56:14;102321.16;;;-2.34;100.00
75942;BME280;64622;46.220;19.878;2023-02-15T00:58:43;102322.81;;;-2.28;100.00
75942;BME280;64622;46.220;19.878;2023-02-15T01:01:15;102308.16;;;-2.38;100.00
75942;BME280;64622;46.220;19.878;2023-02-15T01:03:42;102305.56;;;-2.41;100.00
75942;BME280;64622;46.220;19.878;2023-02-15T01:06:10;102301.84;;;-2.30;100.00
75942;BME280;64622;46.220;19.878;2023-02-15T01:08:37;102293.94;;;-2.27;100.00
75942;BME280;64622;46.220;19.878;2023-02-15T01:11:14;102299.84;;;-2.17;100.00
75942;BME280;64622;46.220;19.878;2023-02-15T01:13:41;102309.19;;;-2.03;100.00
75942;BME280;64622;46.220;19.878;2023-02-15T01:16:08;102300.44;;;-2.02;100.00
75942;BME280;64622;46.220;19.878;2023-02-15T01:18:35;102313.47;;;-1.99;100.00
75942;BME280;64622;46.220;19.878;2023-02-15T01:21:19;102312.38;;;-1.89;100.00
75942;BME280;64622;46.220;19.878;2023-02-15T01:23:46;102314.28;;;-1.95;100.00
75942;BME280;64622;46.220;19.878;2023-02-15T01:26:13;102313.62;;;-2.06;100.00
75942;BME280;64622;46.220;19.878;2023-02-15T01:28:43;102305.84;;;-2.11;100.00
75942;BME280;64622;46.220;19.878;2023-02-15T01:31:18;102306.91;;;-2.19;100.00
75942;BME280;64622;46.220;19.878;2023-02-15T01:33:46;102306.16;;;-2.26;100.00
75942;BME280;64622;46.220;19.878;2023-02-15T01:36:14;102301.94;;;-2.33;100.00
75942;BME280;64622;46.220;19.878;2023-02-15T01:38:40;102310.38;;;-2.19;100.00
75942;BME280;64622;46.220;19.878;2023-02-15T01:41:08;102304.97;;;-2.11;100.00
75942;BME280;64622;46.220;19.878;2023-02-15T01:43:56;102305.94;;;-2.15;100.00
75942;BME280;64622;46.220;19.878;2023-02-15T01:46:32;102303.56;;;-2.29;100.00
75942;BME280;64622;46.220;19.878;2023-02-15T01:49:14;102302.78;;;-2.32;100.00
75942;BME280;64622;46.220;19.878;2023-02-15T01:51:43;102293.00;;;-2.22;100.00
75942;BME280;64622;46.220;19.878;2023-02-15T01:54:29;102290.63;;;-2.36;100.00
75942;BME280;64622;46.220;19.878;2023-02-15T01:57:04;102295.97;;;-2.41;100.00
75942;BME280;64622;46.220;19.878;2023-02-15T01:59:33;102296.75;;;-2.37;100.00
75942;BME280;64622;46.220;19.878;2023-02-15T02:02:03;102281.91;;;-2.37;100.00
75942;BME280;64622;46.220;19.878;2023-02-15T02:04:40;102289.53;;;-2.26;100.00
75942;BME280;64622;46.220;19.878;2023-02-15T02:07:09;102289.50;;;-2.23;100.00
75942;BME280;64622;46.220;19.878;2023-02-15T02:09:38;102293.78;;;-2.19;100.00
75942;BME280;64622;46.220;19.878;2023-02-15T02:12:05;102286.75;;;-2.19;100.00
75942;BME280;64622;46.220;19.878;2023-02-15T02:14:32;102279.94;;;-2.27;100.00
75942;BME280;64622;46.220;19.878;2023-02-15T02:17:11;102278.44;;;-2.39;100.00
75942;BME280;64622;46.220;19.878;2023-02-15T02:20:15;102284.75;;;-2.49;100.00
75942;BME280;64622;46.220;19.878;2023-02-15T02:42:06;102291.03;;;-2.57;100.00
75942;BME280;64622;46.220;19.878;2023-02-15T02:44:42;102290.06;;;-2.52;100.00
75942;BME280;64622;46.220;19.878;2023-02-15T02:47:21;102294.44;;;-2.52;100.00
75942;BME280;64622;46.220;19.878;2023-02-15T02:49:56;102283.03;;;-2.51;100.00
75942;BME280;64622;46.220;19.878;2023-02-15T02:52:47;102292.00;;;-2.62;100.00
75942;BME280;64622;46.220;19.878;2023-02-15T02:55:33;102280.41;;;-2.51;100.00
75942;BME280;64622;46.220;19.878;2023-02-15T02:58:04;102271.56;;;-2.44;100.00
75942;BME280;64622;46.220;19.878;2023-02-15T03:00:42;102279.16;;;-2.31;100.00
75942;BME280;64622;46.220;19.878;2023-02-15T03:03:28;102283.44;;;-2.27;100.00
75942;BME280;64622;46.220;19.878;2023-02-15T03:06:01;102290.44;;;-2.27;100.00
75942;BME280;64622;46.220;19.878;2023-02-15T03:08:36;102282.72;;;-2.35;100.00
75942;BME280;64622;46.220;19.878;2023-02-15T03:11:05;102276.84;;;-2.46;100.00
75942;BME280;64622;46.220;19.878;2023-02-15T03:13:33;102277.97;;;-2.58;100.00
75942;BME280;64622;46.220;19.878;2023-02-15T03:16:01;102295.41;;;-2.56;100.00
75942;BME280;64622;46.220;19.878;2023-02-15T03:18:53;102291.13;;;-2.63;100.00
75942;BME280;64622;46.220;19.878;2023-02-15T03:21:50;102293.69;;;-2.58;100.00
75942;BME280;64622;46.220;19.878;2023-02-15T03:24:37;102296.38;;;-2.63;100.00
75942;BME280;64622;46.220;19.878;2023-02-15T03:27:10;102291.25;;;-2.69;100.00
75942;BME280;64622;46.220;19.878;2023-02-15T03:29:38;102287.81;;;-2.71;100.00
75942;BME280;64622;46.220;19.878;2023-02-15T03:32:08;102287.81;;;-2.71;100.00
75942;BME280;64622;46.220;19.878;2023-02-15T03:34:36;102288.66;;;-2.71;100.00
75942;BME280;64622;46.220;19.878;2023-02-15T03:37:25;102304.34;;;-2.67;100.00
75942;BME280;64622;46.220;19.878;2023-02-15T03:39:59;102294.75;;;-2.68;100.00
75942;BME280;64622;46.220;19.878;2023-02-15T03:42:49;102305.16;;;-2.66;100.00
75942;BME280;64622;46.220;19.878;2023-02-15T03:45:22;102304.34;;;-2.67;100.00
75942;BME280;64622;46.220;19.878;2023-02-15T03:47:52;102291.34;;;-2.73;100.00
75942;BME280;64622;46.220;19.878;2023-02-15T03:50:25;102302.69;;;-2.75;100.00
75942;BME280;64622;46.220;19.878;2023-02-15T03:53:14;102307.38;;;-2.92;100.00
75942;BME280;64622;46.220;19.878;2023-02-15T03:55:49;102304.09;;;-3.04;100.00
75942;BME280;64622;46.220;19.878;2023-02-15T03:58:16;102287.94;;;-3.30;100.00
75942;BME280;64622;46.220;19.878;2023-02-15T04:01:11;102286.47;;;-3.49;100.00
75942;BME280;64622;46.220;19.878;2023-02-15T04:04:03;102302.25;;;-3.53;100.00
75942;BME280;64622;46.220;19.878;2023-02-15T04:06:34;102306.69;;;-3.58;100.00
75942;BME280;64622;46.220;19.878;2023-02-15T04:09:00;102299.69;;;-3.58;100.00
75942;BME280;64622;46.220;19.878;2023-02-15T04:11:46;102282.28;;;-3.61;100.00
75942;BME280;64622;46.220;19.878;2023-02-15T04:14:13;102283.38;;;-3.73;100.00
75942;BME280;64622;46.220;19.878;2023-02-15T04:16:58;102301.63;;;-3.71;100.00
75942;BME280;64622;46.220;19.878;2023-02-15T04:19:25;102294.78;;;-3.81;100.00
75942;BME280;64622;46.220;19.878;2023-02-15T04:22:10;102305.03;;;-3.67;100.00
75942;BME280;64622;46.220;19.878;2023-02-15T04:24:55;102289.31;;;-3.64;100.00
75942;BME280;64622;46.220;19.878;2023-02-15T04:27:50;102298.56;;;-3.42;100.00
75942;BME280;64622;46.220;19.878;2023-02-15T04:30:20;102296.84;;;-3.42;100.00
75942;BME280;64622;46.220;19.878;2023-02-15T04:32:47;102278.59;;;-3.46;100.00
75942;BME280;64622;46.220;19.878;2023-02-15T04:35:14;102286.12;;;-3.27;100.00
75942;BME280;64622;46.220;19.878;2023-02-15T04:37:42;102286.00;;;-3.17;100.00
75942;BME280;64622;46.220;19.878;2023-02-15T04:40:11;102283.38;;;-3.19;100.00
75942;BME280;64622;46.220;19.878;2023-02-15T04:42:38;102291.03;;;-3.07;100.00
75942;BME280;64622;46.220;19.878;2023-02-15T04:45:05;102289.28;;;-3.07;100.00
75942;BME280;64622;46.220;19.878;2023-02-15T04:47:32;102281.34;;;-3.02;100.00
75942;BME280;64622;46.220;19.878;2023-02-15T04:49:59;102285.97;;;-3.16;100.00
75942;BME280;64622;46.220;19.878;2023-02-15T04:52:26;102294.63;;;-3.12;100.00
75942;BME280;64622;46.220;19.878;2023-02-15T04:54:52;102293.84;;;-3.17;100.00
75942;BME280;64622;46.220;19.878;2023-02-15T04:57:19;102294.50;;;-3.05;100.00
75942;BME280;64622;46.220;19.878;2023-02-15T04:59:45;102288.28;;;-2.98;100.00
75942;BME280;64622;46.220;19.878;2023-02-15T05:02:12;102291.03;;;-3.07;100.00
75942;BME280;64622;46.220;19.878;2023-02-15T05:04:39;102293.03;;;-3.21;100.00
75942;BME280;64622;46.220;19.878;2023-02-15T05:07:05;102291.37;;;-3.28;100.00
75942;BME280;64622;46.220;19.878;2023-02-15T05:09:32;102289.75;;;-3.33;100.00
75942;BME280;64622;46.220;19.878;2023-02-15T05:11:58;102294.87;;;-3.28;100.00
75942;BME280;64622;46.220;19.878;2023-02-15T05:14:25;102301.03;;;-3.30;100.00
75942;BME280;64622;46.220;19.878;2023-02-15T05:16:52;102310.59;;;-3.29;100.00
75942;BME280;64622;46.220;19.878;2023-02-15T05:19:20;102314.00;;;-3.22;100.00
75942;BME280;64622;46.220;19.878;2023-02-15T05:21:47;102308.88;;;-3.28;100.00
75942;BME280;64622;46.220;19.878;2023-02-15T05:24:13;102327.06;;;-3.21;100.00
75942;BME280;64622;46.220;19.878;2023-02-15T05:26:58;102321.87;;;-3.26;100.00
75942;BME280;64622;46.220;19.878;2023-02-15T05:29:43;102325.41;;;-3.27;100.00
75942;BME280;64622;46.220;19.878;2023-02-15T05:32:13;102325.63;;;-3.43;100.00
75942;BME280;64622;46.220;19.878;2023-02-15T05:34:40;102329.25;;;-3.50;100.00
75942;BME280;64622;46.220;19.878;2023-02-15T05:37:06;102319.91;;;-3.69;100.00
75942;BME280;64622;46.220;19.878;2023-02-15T05:39:34;102333.16;;;-3.81;100.00
75942;BME280;64622;46.220;19.878;2023-02-15T05:42:00;102334.94;;;-3.85;100.00
75942;BME280;64622;46.220;19.878;2023-02-15T05:44:27;102321.94;;;-3.92;100.00
75942;BME280;64622;46.220;19.878;2023-02-15T05:46:54;102333.31;;;-3.95;100.00
75942;BME280;64622;46.220;19.878;2023-02-15T05:49:20;102331.59;;;-3.97;100.00
75942;BME280;64622;46.220;19.878;2023-02-15T05:51:47;102322.00;;;-3.93;100.00
75942;BME280;64622;46.220;19.878;2023-02-15T05:54:14;102335.78;;;-3.81;100.00
75942;BME280;64622;46.220;19.878;2023-02-15T05:56:40;102336.50;;;-3.68;100.00
75942;BME280;64622;46.220;19.878;2023-02-15T05:59:06;102343.16;;;-3.47;100.00
75942;BME280;64622;46.220;19.878;2023-02-15T06:01:34;102340.44;;;-3.42;100.00
75942;BME280;64622;46.220;19.878;2023-02-15T06:04:00;102348.84;;;-3.17;100.00
75942;BME280;64622;46.220;19.878;2023-02-15T06:06:26;102348.72;;;-3.10;100.00
75942;BME280;64622;46.220;19.878;2023-02-15T06:08:53;102350.19;;;-2.92;100.00
75942;BME280;64622;46.220;19.878;2023-02-15T06:11:20;102351.63;;;-2.75;100.00
75942;BME280;64622;46.220;19.878;2023-02-15T06:13:47;102359.28;;;-2.65;100.00
75942;BME280;64622;46.220;19.878;2023-02-15T06:16:13;102351.25;;;-2.53;100.00
75942;BME280;64622;46.220;19.878;2023-02-15T06:18:42;102341.56;;;-2.49;100.00
75942;BME280;64622;46.220;19.878;2023-02-15T06:21:09;102338.72;;;-2.37;100.00
75942;BME280;64622;46.220;19.878;2023-02-15T06:23:35;102350.84;;;-2.32;100.00
75942;BME280;64622;46.220;19.878;2023-02-15T06:26:02;102350.62;;;-2.21;100.00
75942;BME280;64622;46.220;19.878;2023-02-15T06:28:29;102345.06;;;-2.05;100.00
75942;BME280;64622;46.220;19.878;2023-02-15T06:30:55;102353.34;;;-1.80;100.00
75942;BME280;64622;46.220;19.878;2023-02-15T06:33:22;102350.16;;;-1.56;100.00
75942;BME280;64622;46.220;19.878;2023-02-15T06:35:49;102359.50;;;-1.42;100.00
75942;BME280;64622;46.220;19.878;2023-02-15T06:38:15;102363.13;;;-1.09;100.00
75942;BME280;64622;46.220;19.878;2023-02-15T06:40:42;102356.59;;;-0.93;100.00
75942;BME280;64622;46.220;19.878;2023-02-15T06:43:09;102347.56;;;-0.82;100.00
75942;BME280;64622;46.220;19.878;2023-02-15T06:45:35;102351.47;;;-0.62;100.00
75942;BME280;64622;46.220;19.878;2023-02-15T06:48:02;102349.31;;;-0.49;100.00
75942;BME280;64622;46.220;19.878;2023-02-15T06:50:29;102359.75;;;-0.12;100.00
75942;BME280;64622;46.220;19.878;2023-02-15T06:52:57;102353.28;;;-0.01;100.00
75942;BME280;64622;46.220;19.878;2023-02-15T06:55:24;102373.59;;;-0.06;100.00
75942;BME280;64622;46.220;19.878;2023-02-15T06:57:51;102372.59;;;-0.34;100.00
75942;BME280;64622;46.220;19.878;2023-02-15T07:00:18;102367.44;;;-0.37;100.00
75942;BME280;64622;46.220;19.878;2023-02-15T07:02:44;102367.94;;;-0.22;100.00
75942;BME280;64622;46.220;19.878;2023-02-15T07:05:11;102357.12;;;0.18;100.00
75942;BME280;64622;46.220;19.878;2023-02-15T07:07:38;102368.91;;;0.36;100.00
75942;BME280;64622;46.220;19.878;2023-02-15T07:10:05;102376.25;;;0.83;100.00
75942;BME280;64622;46.220;19.878;2023-02-15T07:12:32;102365.75;;;1.09;100.00
75942;BME280;64622;46.220;19.878;2023-02-15T07:15:16;102371.50;;;1.47;100.00
75942;BME280;64622;46.220;19.878;2023-02-15T07:17:43;102372.84;;;1.85;100.00
75942;BME280;64622;46.220;19.878;2023-02-15T07:20:13;102363.75;;;1.93;100.00
75942;BME280;64622;46.220;19.878;2023-02-15T07:22:40;102366.19;;;2.22;100.00
75942;BME280;64622;46.220;19.878;2023-02-15T07:25:08;102369.09;;;2.39;100.00
75942;BME280;64622;46.220;19.878;2023-02-15T07:27:36;102369.81;;;2.66;100.00
75942;BME280;64622;46.220;19.878;2023-02-15T07:30:05;102364.69;;;3.06;100.00
75942;BME280;64622;46.220;19.878;2023-02-15T07:32:32;102358.97;;;3.38;96.60
75942;BME280;64622;46.220;19.878;2023-02-15T07:35:02;102346.75;;;3.55;97.81
75942;BME280;64622;46.220;19.878;2023-02-15T07:37:28;102366.63;;;3.65;96.74
75942;BME280;64622;46.220;19.878;2023-02-15T07:39:55;102354.69;;;3.75;94.93
75942;BME280;64622;46.220;19.878;2023-02-15T07:42:22;102370.00;;;3.89;97.34
75942;BME280;64622;46.220;19.878;2023-02-15T07:44:48;102363.41;;;4.17;93.87
75942;BME280;64622;46.220;19.878;2023-02-15T07:47:15;102362.50;;;4.57;92.54
75942;BME280;64622;46.220;19.878;2023-02-15T07:49:41;102373.88;;;4.59;91.54
75942;BME280;64622;46.220;19.878;2023-02-15T07:52:08;102372.34;;;4.35;94.71
75942;BME280;64622;46.220;19.878;2023-02-15T07:54:34;102369.16;;;4.65;90.92
75942;BME280;64622;46.220;19.878;2023-02-15T07:57:01;102368.00;;;4.71;94.00
75942;BME280;64622;46.220;19.878;2023-02-15T07:59:28;102353.00;;;4.70;87.65
75942;BME280;64622;46.220;19.878;2023-02-15T08:01:55;102356.28;;;4.93;87.24
75942;BME280;64622;46.220;19.878;2023-02-15T08:04:23;102361.41;;;4.98;90.12
75942;BME280;64622;46.220;19.878;2023-02-15T08:06:53;102345.25;;;5.02;85.61
75942;BME280;64622;46.220;19.878;2023-02-15T08:09:22;102355.84;;;5.02;86.05
75942;BME280;64622;46.220;19.878;2023-02-15T08:11:49;102337.44;;;5.35;92.44
75942;BME280;64622;46.220;19.878;2023-02-15T08:14:21;102347.81;;;5.73;89.75
75942;BME280;64622;46.220;19.878;2023-02-15T08:16:52;102347.41;;;5.82;86.72
75942;BME280;64622;46.220;19.878;2023-02-15T08:19:26;102340.84;;;6.22;86.63
75942;BME280;64622;46.220;19.878;2023-02-15T08:21:55;102336.69;;;6.33;82.92
75942;BME280;64622;46.220;19.878;2023-02-15T08:24:27;102341.84;;;6.37;83.74
75942;BME280;64622;46.220;19.878;2023-02-15T08:26:55;102353.09;;;6.42;80.83
75942;BME280;64622;46.220;19.878;2023-02-15T08:29:26;102345.31;;;6.69;84.46
75942;BME280;64622;46.220;19.878;2023-02-15T08:31:55;102345.94;;;7.06;83.17
75942;BME280;64622;46.220;19.878;2023-02-15T08:34:21;102334.84;;;7.13;80.65
75942;BME280;64622;46.220;19.878;2023-02-15T08:36:48;102333.03;;;7.13;84.96
75942;BME280;64622;46.220;19.878;2023-02-15T08:39:21;102333.41;;;7.37;84.37
75942;BME280;64622;46.220;19.878;2023-02-15T08:41:49;102335.19;;;6.61;79.37
75942;BME280;64622;46.220;19.878;2023-02-15T08:44:17;102330.50;;;7.71;89.11
75942;BME280;64622;46.220;19.878;2023-02-15T08:46:45;102327.09;;;7.83;77.40
75942;BME280;64622;46.220;19.878;2023-02-15T08:49:17;102331.00;;;7.78;79.52
75942;BME280;64622;46.220;19.878;2023-02-15T08:51:44;102332.47;;;8.11;75.37
75942;BME280;64622;46.220;19.878;2023-02-15T08:54:16;102326.84;;;9.12;80.94
75942;BME280;64622;46.220;19.878;2023-02-15T08:56:44;102314.97;;;9.04;81.48
75942;BME280;64622;46.220;19.878;2023-02-15T08:59:18;102324.72;;;8.50;73.63
75942;BME280;64622;46.220;19.878;2023-02-15T09:01:47;102320.69;;;9.12;79.21
75942;BME280;64622;46.220;19.878;2023-02-15T09:04:15;102324.03;;;9.54;72.92
75942;BME280;64622;46.220;19.878;2023-02-15T09:06:44;102324.69;;;9.31;67.99
75942;BME280;64622;46.220;19.878;2023-02-15T09:09:11;102319.91;;;9.88;68.22
75942;BME280;64622;46.220;19.878;2023-02-15T09:11:40;102315.59;;;10.24;69.46
75942;BME280;64622;46.220;19.878;2023-02-15T09:14:20;102317.78;;;10.68;70.37
75942;BME280;64622;46.220;19.878;2023-02-15T09:16:48;102320.19;;;10.83;67.95
75942;BME280;64622;46.220;19.878;2023-02-15T09:19:20;102316.62;;;9.97;65.98
75942;BME280;64622;46.220;19.878;2023-02-15T09:21:46;102318.63;;;10.56;70.77
75942;BME280;64622;46.220;19.878;2023-02-15T09:24:15;102311.28;;;11.19;68.91
75942;BME280;64622;46.220;19.878;2023-02-15T09:26:46;102320.34;;;8.90;67.31
75942;BME280;64622;46.220;19.878;2023-02-15T09:29:13;102314.19;;;10.06;66.12
75942;BME280;64622;46.220;19.878;2023-02-15T09:31:50;102322.88;;;9.05;66.94
75942;BME280;64622;46.220;19.878;2023-02-15T09:34:19;102314.19;;;10.06;66.97
75942;BME280;64622;46.220;19.878;2023-02-15T09:36:46;102313.59;;;11.23;63.74
75942;BME280;64622;46.220;19.878;2023-02-15T09:41:49;102307.97;;;11.39;61.50
75942;BME280;64622;46.220;19.878;2023-02-15T10:04:14;102290.28;;;12.49;54.03
75942;BME280;64622;46.220;19.878;2023-02-15T10:07:10;102291.50;;;12.12;54.02
75942;BME280;64622;46.220;19.878;2023-02-15T10:26:21;102281.97;;;12.63;50.84
75942;BME280;64622;46.220;19.878;2023-02-15T10:28:55;102280.97;;;11.06;54.17
75942;BME280;64622;46.220;19.878;2023-02-15T10:31:51;102273.41;;;12.58;51.13
75942;BME280;64622;46.220;19.878;2023-02-15T10:34:47;102265.47;;;13.73;48.01
75942;BME280;64622;46.220;19.878;2023-02-15T10:45:49;102254.63;;;12.47;48.75
75942;BME280;64622;46.220;19.878;2023-02-15T10:48:30;102250.56;;;12.75;48.52
75942;BME280;64622;46.220;19.878;2023-02-15T10:51:02;102255.97;;;11.52;50.53
75942;BME280;64622;46.220;19.878;2023-02-15T11:03:02;102230.31;;;14.46;44.69
75942;BME280;64622;46.220;19.878;2023-02-15T11:08:23;102225.56;;;13.78;46.18
75942;BME280;64622;46.220;19.878;2023-02-15T11:11:07;102217.94;;;14.13;45.37
75942;BME280;64622;46.220;19.878;2023-02-15T11:13:38;102217.00;;;13.94;44.03
75942;BME280;64622;46.220;19.878;2023-02-15T11:16:08;102213.69;;;14.11;45.66
75942;BME280;64622;46.220;19.878;2023-02-15T11:18:54;102216.69;;;13.87;45.35
75942;BME280;64622;46.220;19.878;2023-02-15T11:21:49;102215.00;;;14.16;43.93
75942;BME280;64622;46.220;19.878;2023-02-15T11:24:19;102211.28;;;13.05;45.78
75942;BME280;64622;46.220;19.878;2023-02-15T11:26:51;102204.72;;;14.21;44.44
75942;BME280;64622;46.220;19.878;2023-02-15T11:31:59;102208.09;;;14.72;42.98
75942;BME280;64622;46.220;19.878;2023-02-15T11:34:38;102199.78;;;15.32;42.05
75942;BME280;64622;46.220;19.878;2023-02-15T11:37:11;102195.09;;;13.78;43.30
75942;BME280;64622;46.220;19.878;2023-02-15T11:39:39;102192.28;;;12.33;46.84
75942;BME280;64622;46.220;19.878;2023-02-15T11:42:12;102178.22;;;14.36;43.79
75942;BME280;64622;46.220;19.878;2023-02-15T11:45:04;102178.47;;;14.72;42.46
75942;BME280;64622;46.220;19.878;2023-02-15T11:47:34;102173.50;;;14.87;41.82
75942;BME280;64622;46.220;19.878;2023-02-15T11:50:00;102187.13;;;12.83;45.23
75942;BME280;64622;46.220;19.878;2023-02-15T11:52:27;102180.78;;;12.42;46.97
75942;BME280;64622;46.220;19.878;2023-02-15T11:54:54;102172.47;;;14.59;42.35
75942;BME280;64622;46.220;19.878;2023-02-15T11:57:23;102168.69;;;15.09;40.85
75942;BME280;64622;46.220;19.878;2023-02-15T12:00:15;102161.03;;;15.24;40.94
75942;BME280;64622;46.220;19.878;2023-02-15T12:02:49;102163.25;;;15.57;39.85
75942;BME280;64622;46.220;19.878;2023-02-15T12:05:18;102149.97;;;16.09;39.63
75942;BME280;64622;46.220;19.878;2023-02-15T12:07:55;102164.84;;;15.96;39.26
75942;BME280;64622;46.220;19.878;2023-02-15T12:10:57;102149.44;;;16.06;39.44
75942;BME280;64622;46.220;19.878;2023-02-15T12:13:25;102148.59;;;15.59;39.69
75942;BME280;64622;46.220;19.878;2023-02-15T12:15:56;102150.81;;;14.99;40.12
75942;BME280;64622;46.220;19.878;2023-02-15T12:18:36;102163.59;;;15.06;41.36
75942;BME280;64622;46.220;19.878;2023-02-15T12:21:15;102154.69;;;15.71;39.26
75942;BME280;64622;46.220;19.878;2023-02-15T12:23:55;102131.34;;;16.16;38.48
75942;BME280;64622;46.220;19.878;2023-02-15T12:26:34;102140.94;;;14.31;41.84
75942;BME280;64622;46.220;19.878;2023-02-15T12:29:09;102139.84;;;15.29;39.76
75942;BME280;64622;46.220;19.878;2023-02-15T12:31:40;102136.25;;;14.24;41.98
75942;BME280;64622;46.220;19.878;2023-02-15T12:34:21;102130.78;;;14.73;41.03
75942;BME280;64622;46.220;19.878;2023-02-15T12:36:52;102129.06;;;15.29;39.99
75942;BME280;64622;46.220;19.878;2023-02-15T12:39:26;102121.97;;;15.37;39.90
75942;BME280;64622;46.220;19.878;2023-02-15T12:44:29;102122.25;;;14.00;42.44
75942;BME280;64622;46.220;19.878;2023-02-15T12:49:34;102121.34;;;15.89;38.12
75942;BME280;64622;46.220;19.878;2023-02-15T12:52:05;102129.63;;;15.32;40.09
75942;BME280;64622;46.220;19.878;2023-02-15T12:54:38;102123.12;;;14.10;40.59
75942;BME280;64622;46.220;19.878;2023-02-15T12:59:59;102101.09;;;16.03;37.74
75942;BME280;64622;46.220;19.878;2023-02-15T13:04:55;102100.38;;;14.33;39.94
75942;BME280;64622;46.220;19.878;2023-02-15T13:07:25;102109.78;;;14.57;39.67
75942;BME280;64622;46.220;19.878;2023-02-15T13:09:58;102106.47;;;15.30;39.91
75942;BME280;64622;46.220;19.878;2023-02-15T13:12:27;102104.81;;;15.10;38.64
75942;BME280;64622;46.220;19.878;2023-02-15T13:14:58;102104.81;;;14.53;40.53
75942;BME280;64622;46.220;19.878;2023-02-15T13:17:28;102094.00;;;15.29;39.70
75942;BME280;64622;46.220;19.878;2023-02-15T13:20:00;102095.44;;;13.59;42.26
75942;BME280;64622;46.220;19.878;2023-02-15T13:22:38;102098.56;;;14.90;40.47
75942;BME280;64622;46.220;19.878;2023-02-15T13:25:17;102094.00;;;15.00;39.73
75942;BME280;64622;46.220;19.878;2023-02-15T13:27:50;102097.13;;;15.05;39.62
75942;BME280;64622;46.220;19.878;2023-02-15T13:30:25;102096.88;;;14.89;40.20
75942;BME280;64622;46.220;19.878;2023-02-15T13:32:56;102094.06;;;14.13;41.23
75942;BME280;64622;46.220;19.878;2023-02-15T13:35:25;102093.19;;;14.62;40.42
75942;BME280;64622;46.220;19.878;2023-02-15T13:38:14;102087.47;;;15.22;39.61
75942;BME280;64622;46.220;19.878;2023-02-15T13:40:52;102084.81;;;14.36;40.83
75942;BME280;64622;46.220;19.878;2023-02-15T13:54:42;102093.19;;;13.13;43.50
75942;BME280;64622;46.220;19.878;2023-02-15T14:00:26;102086.69;;;13.96;42.04
75942;BME280;64622;46.220;19.878;2023-02-15T14:15:02;102083.69;;;13.99;41.78
75942;BME280;64622;46.220;19.878;2023-02-15T14:20:47;102082.75;;;11.39;48.38
75942;BME280;64622;46.220;19.878;2023-02-15T14:32:20;102075.91;;;12.95;44.12
75942;BME280;64622;46.220;19.878;2023-02-15T14:34:59;102078.41;;;13.49;43.56
75942;BME280;64622;46.220;19.878;2023-02-15T14:43:08;102065.25;;;13.55;43.58
75942;BME280;64622;46.220;19.878;2023-02-15T14:45:56;102074.94;;;13.37;43.51
75942;BME280;64622;46.220;19.878;2023-02-15T14:49:10;102065.69;;;12.69;44.72
75942;BME280;64622;46.220;19.878;2023-02-15T14:56:44;102074.75;;;12.36;46.40
75942;BME280;64622;46.220;19.878;2023-02-15T14:59:18;102073.53;;;12.29;46.33
75942;BME280;64622;46.220;19.878;2023-02-15T15:01:57;102065.16;;;12.23;46.20
75942;BME280;64622;46.220;19.878;2023-02-15T15:04:31;102076.78;;;11.46;48.23
75942;BME280;64622;46.220;19.878;2023-02-15T15:07:20;102064.88;;;11.61;48.28
75942;BME280;64622;46.220;19.878;2023-02-15T15:10:03;102070.94;;;11.41;49.33
75942;BME280;64622;46.220;19.878;2023-02-15T15:14:59;102052.44;;;11.60;48.55
75942;BME280;64622;46.220;19.878;2023-02-15T15:22:34;102059.34;;;11.30;49.02
75942;BME280;64622;46.220;19.878;2023-02-15T15:25:04;102060.31;;;11.18;49.66
75942;BME280;64622;46.220;19.878;2023-02-15T15:27:53;102059.75;;;10.45;52.99
75942;BME280;64622;46.220;19.878;2023-02-15T15:32:57;102061.19;;;9.66;55.59